Time;durP1;ratioP1;P1;durP2;ratioP2;P2;SDS_P1;SDS_P2;PMS_P1;PMS_P2;Temp;Humidity;BMP_temperature;BMP_pressure;BME280_temperature;BME280_humidity;BME280_pressure;Samples;Min_cycle;Max_cycle;Signal;HPM_P1;HPM_P2
2023/01/23 00:00:38;;;;;;;0.40;0.30;;;;;;;15.99;69.47;103263.16;20299441;29;20103;-86
2023/01/23 00:10:39;;;;;;;0.50;0.50;;;;;;;15.74;69.41;103223.88;20298844;29;20447;-86
2023/01/23 00:20:41;;;;;;;0.30;0.22;;;;;;;15.99;69.43;103264.03;20315012;29;20095;-86
2023/01/23 00:30:42;;;;;;;0.40;0.40;;;;;;;15.97;69.25;103262.34;20314407;29;20048;-86
2023/01/23 00:40:44;;;;;;;0.30;0.30;;;;;;;15.96;69.43;103258.81;20296835;29;20050;-86
2023/01/23 00:50:45;;;;;;;0.30;0.30;;;;;;;15.97;69.24;103263.22;20296807;29;20059;-86
2023/01/23 01:00:47;;;;;;;0.30;0.30;;;;;;;15.80;69.34;103239.75;20296326;29;20048;-85
2023/01/23 01:10:49;;;;;;;0.22;0.22;;;;;;;15.84;69.28;103237.78;20279763;29;20051;-85
2023/01/23 01:20:50;;;;;;;0.40;0.30;;;;;;;15.95;69.37;103259.75;20280400;29;20060;-83
2023/01/23 01:30:52;;;;;;;0.17;0.15;;;;;;;15.89;69.16;103259.97;20312730;29;20048;-86
2023/01/23 01:40:56;;;;;;;1.30;0.50;;;;;;;15.80;68.90;103245.97;20311544;29;20044;-86
2023/01/23 01:50:58;;;;;;;0.30;0.30;;;;;;;15.89;69.25;103247.44;20294733;29;20503;-86
2023/01/23 02:01:00;;;;;;;0.40;0.40;;;;;;;15.96;68.96;103266.88;20279227;29;20072;-86
2023/01/23 02:11:03;;;;;;;0.30;0.30;;;;;;;15.95;68.77;103260.59;20274287;29;20079;-86
2023/01/23 02:21:07;;;;;;;0.30;0.30;;;;;;;15.95;68.92;103281.22;20291298;29;20315;-86
2023/01/23 02:31:09;;;;;;;0.57;0.40;;;;;;;15.95;68.91;103289.28;20290968;29;20048;-86
2023/01/23 02:41:13;;;;;;;0.43;0.30;;;;;;;15.95;68.87;103308.09;20305634;29;20044;-87
2023/01/23 02:51:16;;;;;;;0.50;0.40;;;;;;;15.95;68.83;103305.41;20304703;29;20067;-86
2023/01/23 03:01:19;;;;;;;0.30;0.30;;;;;;;15.94;68.82;103309.03;20303835;29;20051;-86
2023/01/23 03:11:21;;;;;;;0.40;0.30;;;;;;;15.93;68.87;103316.22;20288470;29;20048;-86
2023/01/23 03:21:23;;;;;;;0.30;0.30;;;;;;;15.94;68.87;103328.69;20302047;29;20104;-86
2023/01/23 03:31:25;;;;;;;0.15;0.15;;;;;;;15.95;68.71;103332.28;20318293;29;20067;-86
2023/01/23 03:41:27;;;;;;;0.28;0.28;;;;;;;15.94;68.56;103322.47;20300707;29;20044;-86
2023/01/23 03:51:34;;;;;;;0.45;0.30;;;;;;;15.88;68.50;103317.31;20285948;29;20083;-86
2023/01/23 04:01:36;;;;;;;0.43;0.40;;;;;;;15.94;68.45;103322.47;20299516;29;20131;-86
2023/01/23 04:11:38;;;;;;;0.30;0.30;;;;;;;15.93;68.46;103321.59;20282720;29;20048;-86
2023/01/23 04:21:41;;;;;;;0.45;0.40;;;;;;;15.94;68.63;103333.22;20297974;29;20079;-86
2023/01/23 04:31:43;;;;;;;0.38;0.32;;;;;;;15.72;68.52;103309.88;20297281;29;20082;-86
2023/01/23 04:41:46;;;;;;;1.50;0.40;;;;;;;15.74;68.57;103318.75;20297332;29;20044;-86
2023/01/23 04:52:00;;;;;;;0.40;0.40;;;;;;;15.69;68.37;103306.44;20269419;29;20052;-86
2023/01/23 05:02:03;;;;;;;0.80;0.38;;;;;;;15.89;69.14;103349.50;20291177;28;20048;-89
2023/01/23 05:12:11;;;;;;;0.93;0.50;;;;;;;16.10;70.56;103371.03;20270694;29;20780;-93
2023/01/23 05:22:14;;;;;;;1.73;0.60;;;;;;;16.13;72.99;103345.88;20292066;29;20069;-86
2023/01/23 05:32:15;;;;;;;5.68;1.63;;;;;;;16.22;78.01;103330.22;20283605;29;20131;-86
2023/01/23 05:42:17;;;;;;;15.93;4.38;;;;;;;16.72;86.08;103391.75;20292783;29;20060;-85
2023/01/23 05:52:42;;;;;;;14.60;3.40;;;;;;;16.84;93.99;103388.53;20274963;29;20056;-85
2023/01/23 06:02:46;;;;;;;14.98;3.75;;;;;;;16.82;98.56;103366.19;20266564;29;20094;-85
2023/01/23 06:13:18;;;;;;;14.02;3.30;;;;;;;16.91;100.00;103363.09;20277886;29;20059;-94
2023/01/23 06:23:20;;;;;;;8.77;2.58;;;;;;;17.05;92.71;103385.81;20314474;29;20050;-89
2023/01/23 06:33:22;;;;;;;5.68;1.65;;;;;;;17.07;88.25;103390.22;20323257;29;20521;-88
2023/01/23 06:43:24;;;;;;;5.93;1.67;;;;;;;17.06;84.93;103403.72;20290274;29;20050;-88
2023/01/23 06:53:27;;;;;;;7.13;1.75;;;;;;;16.71;82.16;103355.91;20289240;29;20052;-88
2023/01/23 07:03:30;;;;;;;4.93;1.95;;;;;;;17.08;80.05;103423.38;20304155;29;20071;-88
2023/01/23 07:13:32;;;;;;;5.25;1.67;;;;;;;17.11;79.12;103439.38;20287477;29;20051;-92
2023/01/23 07:23:34;;;;;;;2.95;1.42;;;;;;;17.14;79.29;103438.38;20279468;29;20052;-90
2023/01/23 07:33:35;;;;;;;4.57;1.25;;;;;;;17.16;79.21;103440.03;20320801;29;20048;-90
2023/01/23 07:43:37;;;;;;;2.83;1.40;;;;;;;17.18;78.85;103451.59;20284684;29;20048;-95
2023/01/23 07:53:38;;;;;;;3.60;1.23;;;;;;;17.21;78.52;103466.75;20313580;29;20056;-90
2023/01/23 08:03:40;;;;;;;3.03;1.17;;;;;;;17.23;79.50;103460.38;20334285;28;20147;-90
2023/01/23 08:13:42;;;;;;;2.83;1.00;;;;;;;17.28;81.48;103467.38;20272525;29;20058;-93
2023/01/23 08:23:45;;;;;;;2.88;1.13;;;;;;;16.91;79.72;103411.53;20309085;29;20052;-93
2023/01/23 08:33:46;;;;;;;2.33;1.10;;;;;;;16.96;78.96;103430.13;20298207;29;20071;-90
2023/01/23 08:43:49;;;;;;;2.47;0.90;;;;;;;17.36;78.69;103489.44;20313449;29;20111;-89
2023/01/23 08:53:52;;;;;;;1.60;0.90;;;;;;;17.39;78.98;103498.22;20289175;29;20103;-93
2023/01/23 09:03:53;;;;;;;2.15;1.00;;;;;;;17.32;78.77;103490.53;20287840;29;20040;-86
2023/01/23 09:13:55;;;;;;;2.03;0.98;;;;;;;17.28;78.25;103500.53;20285053;29;20059;-86
2023/01/23 09:23:57;;;;;;;1.27;0.80;;;;;;;17.14;78.24;103519.13;20292366;29;20470;-85
2023/01/23 09:33:58;;;;;;;2.97;1.02;;;;;;;17.00;78.72;103508.97;20300987;29;20060;-86
2023/01/23 09:44:06;;;;;;;2.55;0.90;;;;;;;16.87;79.16;103525.59;20280760;29;20048;-89
2023/01/23 09:54:45;;;;;;;2.47;0.95;;;;;;;16.80;79.30;103535.75;20290042;29;20040;-87
2023/01/23 10:04:48;;;;;;;1.77;0.80;;;;;;;16.73;79.49;103525.28;20304436;29;20043;-86
2023/01/23 10:14:58;;;;;;;2.83;1.00;;;;;;;16.61;79.41;103518.63;20275535;29;20056;-86
2023/01/23 10:25:17;;;;;;;1.33;0.70;;;;;;;16.63;79.19;103543.66;20302348;29;20570;-88
2023/01/23 10:35:24;;;;;;;2.65;1.10;;;;;;;16.60;79.18;103530.34;20274587;29;20055;-90
2023/01/23 10:45:26;;;;;;;2.28;0.73;;;;;;;16.58;79.11;103538.44;20274789;29;20172;-88
2023/01/23 10:55:29;;;;;;;1.13;0.70;;;;;;;16.30;79.00;103495.69;20279682;29;20055;-92
2023/01/23 11:05:39;;;;;;;3.50;0.80;;;;;;;16.30;78.78;103507.31;20290085;29;20060;-89
2023/01/23 11:15:53;;;;;;;1.58;0.70;;;;;;;16.52;78.83;103546.78;20270970;29;20066;-88
2023/01/23 11:25:55;;;;;;;2.50;0.70;;;;;;;16.30;78.39;103507.31;20275216;29;20071;-88
2023/01/23 11:36:12;;;;;;;1.00;0.60;;;;;;;16.50;78.46;103537.91;20273032;29;20056;-85
2023/01/23 11:46:35;;;;;;;1.58;0.77;;;;;;;16.38;78.11;103526.72;20297540;29;20495;-85
2023/01/23 11:56:49;;;;;;;1.98;0.70;;;;;;;16.46;77.92;103528.22;20295487;29;20098;-86
2023/01/23 12:07:22;;;;;;;1.77;0.60;;;;;;;16.45;77.91;103518.38;20289803;29;20446;-85
2023/01/23 12:17:39;;;;;;;1.45;0.70;;;;;;;16.45;77.59;103523.78;20281781;29;20048;-88
2023/01/23 12:27:46;;;;;;;0.55;0.50;;;;;;;16.44;77.41;103524.72;20266201;29;20048;-86
2023/01/23 12:38:23;;;;;;;2.08;0.70;;;;;;;16.43;77.03;103522.97;20283355;29;20056;-88
2023/01/23 12:48:33;;;;;;;1.23;0.57;;;;;;;16.40;76.23;103523.09;20269149;29;20570;-88
2023/01/23 12:58:38;;;;;;;2.08;0.57;;;;;;;16.52;73.28;103523.44;20254918;29;20115;-87
2023/01/23 13:08:53;;;;;;;1.23;0.65;;;;;;;16.79;74.72;103531.31;20290370;29;20135;-95
2023/01/23 13:30:01;;;;;;;1.88;0.68;;;;;;;17.09;73.83;103522.00;20282352;29;20063;-96
2023/01/23 13:40:22;;;;;;;1.77;0.68;;;;;;;17.25;73.17;103547.34;20262805;29;20056;-90
2023/01/23 13:50:34;;;;;;;1.55;0.70;;;;;;;17.28;72.18;103553.53;20263553;29;20060;-84
2023/01/23 14:11:58;;;;;;;2.00;0.70;;;;;;;16.75;71.74;103461.53;19751457;29;20100;-84
2023/01/23 14:22:14;;;;;;;1.38;0.75;;;;;;;16.78;72.18;103462.28;19676131;29;20070;-86
2023/01/23 14:32:21;;;;;;;0.50;0.40;;;;;;;16.80;72.41;103484.63;19880440;29;20543;-84
2023/01/23 14:42:28;;;;;;;1.25;0.47;;;;;;;16.73;72.78;103466.13;19988479;29;20050;-84
2023/01/23 14:52:30;;;;;;;1.40;0.50;;;;;;;16.60;72.69;103482.78;20257689;29;20088;-86
2023/01/23 15:02:33;;;;;;;1.52;0.80;;;;;;;16.63;72.70;103493.41;20313533;29;20080;-87
2023/01/23 15:12:35;;;;;;;1.40;0.70;;;;;;;16.38;72.92;103482.81;20302204;29;20054;-85
2023/01/23 15:22:37;;;;;;;1.23;0.50;;;;;;;16.57;73.15;103517.88;20300775;29;20107;-85
2023/01/23 15:32:38;;;;;;;1.17;0.60;;;;;;;16.46;73.10;103495.94;20323057;29;20051;-95
2023/01/23 15:42:40;;;;;;;1.27;0.50;;;;;;;16.54;73.17;103504.56;20245607;29;20075;-91
2023/01/23 15:52:44;;;;;;;0.95;0.60;;;;;;;16.53;73.11;103530.56;20291133;29;20287;-89
2023/01/23 16:02:47;;;;;;;0.53;0.40;;;;;;;16.35;73.01;103494.56;20295432;29;20067;-96
2023/01/23 16:12:57;;;;;;;0.55;0.50;;;;;;;16.51;73.11;103520.81;20296878;29;20052;-94
2023/01/23 16:23:04;;;;;;;0.93;0.57;;;;;;;16.16;72.86;103477.44;20273361;29;20063;-94
2023/01/23 16:33:16;;;;;;;1.17;0.73;;;;;;;16.50;73.10;103524.44;20294128;29;20048;-86
2023/01/23 16:43:18;;;;;;;0.90;0.60;;;;;;;15.99;72.96;103446.75;20281011;29;20582;-89
2023/01/23 16:53:25;;;;;;;1.58;0.80;;;;;;;16.37;73.01;103527.66;20228569;29;20406;-89
2023/01/23 17:03:30;;;;;;;1.13;0.70;;;;;;;16.47;72.93;103538.88;20217482;29;20061;-90
2023/01/23 17:13:33;;;;;;;1.02;0.60;;;;;;;16.18;73.00;103502.44;20201789;29;20666;-88
2023/01/23 17:23:35;;;;;;;2.45;1.08;;;;;;;16.46;73.00;103560.47;20213004;29;20056;-92
2023/01/23 17:33:36;;;;;;;1.50;0.73;;;;;;;16.44;73.21;103570.41;20263111;29;20059;-88
2023/01/23 17:43:39;;;;;;;1.15;0.60;;;;;;;16.36;73.34;103565.34;20258996;29;20048;-91
2023/01/23 17:53:41;;;;;;;0.93;0.50;;;;;;;16.21;73.18;103543.50;20248300;29;20051;-93
2023/01/23 18:03:44;;;;;;;0.70;0.70;;;;;;;16.45;73.31;103588.31;20284217;29;20103;-91
2023/01/23 18:14:18;;;;;;;0.50;0.50;;;;;;;16.44;73.46;103586.56;20296504;29;20056;-92
2023/01/23 18:24:30;;;;;;;0.93;0.82;;;;;;;16.43;73.45;103596.41;20299017;29;20138;-93
2023/01/23 18:34:44;;;;;;;1.45;0.70;;;;;;;16.43;73.42;103603.63;20310796;29;20506;-92
2023/01/23 18:44:56;;;;;;;0.52;0.50;;;;;;;16.15;73.40;103561.69;20326594;29;20076;-92
2023/01/23 18:55:06;;;;;;;0.65;0.55;;;;;;;16.26;73.21;103580.94;20308084;29;20044;-92
2023/01/23 19:05:12;;;;;;;0.80;0.50;;;;;;;16.40;73.48;103607.28;20308727;29;20732;-92
2023/01/23 19:15:27;;;;;;;0.85;0.57;;;;;;;16.40;73.42;103604.59;20324768;29;20115;-92
2023/01/23 19:25:29;;;;;;;0.43;0.43;;;;;;;16.41;73.51;103610.88;20323629;29;20517;-92
2023/01/23 19:35:31;;;;;;;0.95;0.50;;;;;;;16.40;73.57;103606.44;20323171;29;20060;-92
2023/01/23 19:45:33;;;;;;;0.60;0.60;;;;;;;16.38;73.37;103618.13;20305559;29;20139;-92
2023/01/23 19:55:37;;;;;;;0.68;0.60;;;;;;;16.21;73.33;103599.97;20321687;29;20190;-92
2023/01/23 20:05:38;;;;;;;0.50;0.50;;;;;;;16.29;73.41;103623.81;20303060;29;20044;-93
2023/01/23 20:15:40;;;;;;;1.15;0.60;;;;;;;16.37;73.24;103629.81;20319916;29;20059;-91
2023/01/23 20:25:41;;;;;;;1.27;0.70;;;;;;;16.35;73.49;103633.47;20319398;29;20115;-93
2023/01/23 20:35:43;;;;;;;0.65;0.50;;;;;;;16.38;73.36;103625.28;20302327;29;20048;-93
2023/01/23 20:45:49;;;;;;;0.77;0.70;;;;;;;16.37;73.11;103637.88;20301863;29;20044;-92
2023/01/23 20:55:52;;;;;;;0.68;0.57;;;;;;;16.06;73.29;103596.03;20301293;29;20047;-92
2023/01/23 21:05:54;;;;;;;0.50;0.50;;;;;;;16.37;73.29;103645.06;20318285;29;20115;-92
2023/01/23 21:16:02;;;;;;;0.43;0.43;;;;;;;16.36;73.33;103640.63;20338891;29;20139;-92
2023/01/23 21:26:04;;;;;;;0.73;0.70;;;;;;;16.36;73.38;103636.13;20343467;29;20068;-92
2023/01/23 21:36:05;;;;;;;0.75;0.70;;;;;;;16.13;73.19;103593.09;20343048;29;20056;-92
2023/01/23 21:46:07;;;;;;;0.88;0.52;;;;;;;16.35;73.21;103637.06;20325339;29;20127;-92
2023/01/23 21:56:10;;;;;;;0.57;0.50;;;;;;;16.35;73.05;103639.75;20308824;29;20059;-91
2023/01/23 22:06:12;;;;;;;0.45;0.45;;;;;;;16.36;73.44;103657.63;20323929;29;20056;-92
2023/01/23 22:16:14;;;;;;;0.70;0.60;;;;;;;16.28;72.92;103657.03;20340864;29;20090;-93
2023/01/23 22:26:15;;;;;;;0.68;0.57;;;;;;;16.34;73.10;103664.84;20313949;29;20072;-92
2023/01/23 22:36:18;;;;;;;0.70;0.70;;;;;;;16.34;72.98;103666.69;20327406;29;20048;-93
2023/01/23 22:46:20;;;;;;;0.82;0.68;;;;;;;16.36;72.81;103664.81;20310142;29;20060;-92
2023/01/23 22:56:23;;;;;;;0.60;0.40;;;;;;;16.35;72.98;103660.38;20326344;29;20510;-94
2023/01/23 23:06:25;;;;;;;0.80;0.80;;;;;;;16.25;72.82;103643.69;20308514;29;20396;-91
2023/01/23 23:16:29;;;;;;;0.50;0.50;;;;;;;16.34;72.83;103656.78;20291916;29;20051;-93
2023/01/23 23:26:31;;;;;;;0.63;0.60;;;;;;;16.33;73.01;103665.78;20323849;29;20064;-93
2023/01/23 23:36:33;;;;;;;0.52;0.50;;;;;;;16.27;72.79;103640.97;20322966;29;20132;-93
2023/01/23 23:46:34;;;;;;;0.80;0.70;;;;;;;16.04;72.78;103592.53;20289791;29;20076;-93
2023/01/23 23:56:36;;;;;;;0.65;0.60;;;;;;;16.33;72.79;103641.59;20321638;29;20100;-92
